Time;durP1;ratioP1;P1;durP2;ratioP2;P2;SDS_P1;SDS_P2;PMS_P1;PMS_P2;Temp;Humidity;BMP_temperature;BMP_pressure;BME280_temperature;BME280_humidity;BME280_pressure;Samples;Min_cycle;Max_cycle;Signal;HPM_P1;HPM_P2
2023/10/14 00:01:40;;;;;;;6.47;5.90;;;;;;;;;;6258456;27;20624;-64
2023/10/14 00:04:42;;;;;;;11.07;7.38;;;;;;;;;;6256886;27;20511;-65
2023/10/14 00:07:45;;;;;;;7.75;6.60;;;;;;;;;;6274792;27;20593;-65
2023/10/14 00:10:47;;;;;;;7.20;6.07;;;;;;;;;;6294816;27;20039;-65
2023/10/14 00:13:49;;;;;;;8.25;7.10;;;;;;;;;;6266125;27;20037;-63
2023/10/14 00:16:51;;;;;;;8.07;6.38;;;;;;;;;;6283972;27;20049;-64
2023/10/14 00:19:55;;;;;;;10.75;6.65;;;;;;;;;;6253309;27;20055;-63
2023/10/14 00:22:59;;;;;;;8.00;6.85;;;;;;;;;;6251191;27;20959;-64
2023/10/14 00:26:01;;;;;;;7.45;6.55;;;;;;;;;;6271629;27;20095;-63
2023/10/14 00:32:17;;;;;;;10.88;7.15;;;;;;;;;;6266074;27;20045;-64
2023/10/14 00:35:20;;;;;;;8.30;6.75;;;;;;;;;;6256860;28;20072;-64
2023/10/14 00:38:23;;;;;;;8.57;6.95;;;;;;;;;;6294987;27;20125;-64
2023/10/14 00:41:26;;;;;;;12.35;6.95;;;;;;;;;;6332592;27;20062;-66
2023/10/14 00:44:28;;;;;;;8.77;6.88;;;;;;;;;;6307545;27;20748;-64
2023/10/14 00:47:30;;;;;;;9.48;7.53;;;;;;;;;;6295866;27;20381;-63
2023/10/14 00:50:33;;;;;;;10.30;6.13;;;;;;;;;;6255875;27;20186;-65
2023/10/14 00:53:46;;;;;;;12.48;6.90;;;;;;;;;;6238201;28;20049;-64
2023/10/14 00:56:49;;;;;;;10.90;8.48;;;;;;;;;;6287531;27;20097;-63
2023/10/14 00:59:55;;;;;;;8.70;7.30;;;;;;;;;;6267600;27;20051;-63
2023/10/14 01:02:57;;;;;;;9.02;7.65;;;;;;;;;;6258329;27;20070;-63
2023/10/14 01:09:32;;;;;;;10.38;7.85;;;;;;;;;;6260037;27;20044;-64
2023/10/14 01:12:44;;;;;;;9.85;7.60;;;;;;;;;;6249115;27;20073;-64
2023/10/14 01:15:49;;;;;;;6.65;3.95;;;;;;;;;;6254597;27;20747;-64
2023/10/14 01:18:51;;;;;;;10.52;6.88;;;;;;;;;;6261523;27;20049;-64
2023/10/14 01:21:53;;;;;;;10.23;7.75;;;;;;;;;;6256779;27;20538;-64
2023/10/14 01:24:55;;;;;;;11.75;9.40;;;;;;;;;;6256023;27;20051;-64
2023/10/14 01:27:59;;;;;;;12.73;7.20;;;;;;;;;;6261166;27;20045;-63
2023/10/14 01:31:37;;;;;;;17.17;8.20;;;;;;;;;;6253884;27;20072;-63
2023/10/14 01:34:43;;;;;;;17.05;6.75;;;;;;;;;;6265621;27;20803;-64
2023/10/14 01:37:45;;;;;;;16.38;8.15;;;;;;;;;;6287803;27;20463;-63
2023/10/14 01:40:49;;;;;;;17.42;10.05;;;;;;;;;;6297067;27;20089;-63
2023/10/14 01:43:52;;;;;;;19.35;9.45;;;;;;;;;;6263279;27;20059;-64
2023/10/14 01:46:55;;;;;;;14.32;9.05;;;;;;;;;;6291412;27;20119;-63
2023/10/14 01:49:59;;;;;;;21.50;9.57;;;;;;;;;;6259574;27;20052;-64
2023/10/14 01:53:09;;;;;;;17.08;11.63;;;;;;;;;;6255810;27;20056;-63
2023/10/14 01:56:11;;;;;;;15.82;7.57;;;;;;;;;;6256204;27;20538;-64
2023/10/14 01:59:13;;;;;;;14.48;10.07;;;;;;;;;;6254057;28;20044;-64
2023/10/14 02:02:20;;;;;;;13.60;9.27;;;;;;;;;;6253011;28;20048;-65
2023/10/14 02:05:25;;;;;;;14.35;7.93;;;;;;;;;;6254738;27;20059;-65
2023/10/14 02:08:28;;;;;;;15.13;7.95;;;;;;;;;;6255913;28;20060;-65
2023/10/14 02:11:33;;;;;;;13.15;7.50;;;;;;;;;;6255978;27;20048;-64
2023/10/14 02:14:40;;;;;;;17.20;8.35;;;;;;;;;;6253322;28;20049;-64
2023/10/14 02:17:41;;;;;;;;;;;;;;;;;;6249353;28;20056;-64
2023/10/14 02:20:56;;;;;;;13.98;7.78;;;;;;;;;;6253673;27;19924;-64
2023/10/14 02:24:00;;;;;;;10.68;8.38;;;;;;;;;;6257994;27;20056;-64
2023/10/14 02:27:21;;;;;;;10.30;7.70;;;;;;;;;;6269573;27;20053;-64
2023/10/14 02:30:23;;;;;;;16.90;8.77;;;;;;;;;;6256670;28;20049;-64
2023/10/14 02:33:26;;;;;;;10.13;6.03;;;;;;;;;;6277237;27;20614;-64
2023/10/14 02:36:29;;;;;;;9.10;7.20;;;;;;;;;;6339569;27;20041;-64
2023/10/14 02:39:31;;;;;;;10.75;7.28;;;;;;;;;;6296949;27;20162;-64
2023/10/14 02:42:33;;;;;;;9.63;7.43;;;;;;;;;;6246133;28;20128;-63
2023/10/14 02:45:40;;;;;;;10.30;8.57;;;;;;;;;;6259807;27;20135;-65
2023/10/14 02:48:54;;;;;;;9.60;8.75;;;;;;;;;;6245491;27;20046;-63
2023/10/14 02:52:01;;;;;;;9.45;7.20;;;;;;;;;;6252094;27;20044;-63
2023/10/14 02:55:21;;;;;;;7.53;4.68;;;;;;;;;;6265172;27;20538;-66
2023/10/14 02:58:23;;;;;;;;;;;;;;;;;;6304356;27;20174;-63
2023/10/14 03:01:31;;;;;;;9.48;7.45;;;;;;;;;;6256644;27;20011;-63
2023/10/14 03:07:56;;;;;;;10.68;8.77;;;;;;;;;;6253177;27;20049;-63
2023/10/14 03:10:59;;;;;;;8.43;4.88;;;;;;;;;;6280265;27;20488;-64
2023/10/14 03:14:02;;;;;;;13.38;8.13;;;;;;;;;;6259242;27;20049;-63
2023/10/14 03:17:06;;;;;;;10.80;9.77;;;;;;;;;;6262342;27;20046;-63
2023/10/14 03:20:34;;;;;;;11.43;8.68;;;;;;;;;;6250833;27;20064;-63
2023/10/14 03:23:32;;;;;;;8.90;7.88;;;;;;;;;;6269917;27;20047;-63
2023/10/14 03:26:35;;;;;;;9.52;8.25;;;;;;;;;;6267158;27;20053;-63
2023/10/14 03:29:37;;;;;;;9.70;8.57;;;;;;;;;;6256856;27;20048;-63
2023/10/14 03:32:42;;;;;;;11.27;8.07;;;;;;;;;;6310669;27;21013;-63
2023/10/14 03:35:54;;;;;;;;;;;;;;;;;;6256984;27;20046;-63
2023/10/14 03:38:56;;;;;;;9.52;8.27;;;;;;;;;;6253043;27;20410;-63
2023/10/14 03:42:09;;;;;;;13.43;11.10;;;;;;;;;;6254378;27;20598;-63
2023/10/14 03:45:20;;;;;;;13.60;9.95;;;;;;;;;;6258295;27;20093;-63
2023/10/14 03:48:28;;;;;;;12.32;7.95;;;;;;;;;;6281366;27;20050;-64
2023/10/14 03:51:30;;;;;;;16.67;9.23;;;;;;;;;;6275360;27;20057;-64
2023/10/14 03:54:41;;;;;;;15.57;9.00;;;;;;;;;;6261368;27;20056;-64
2023/10/14 03:57:44;;;;;;;11.60;10.60;;;;;;;;;;6258112;27;20045;-64
2023/10/14 04:00:48;;;;;;;14.93;9.27;;;;;;;;;;6250994;27;20041;-63
2023/10/14 04:03:53;;;;;;;9.40;8.40;;;;;;;;;;6249612;27;20045;-62
2023/10/14 04:10:06;;;;;;;11.27;10.18;;;;;;;;;;6261762;27;20049;-63
2023/10/14 04:13:12;;;;;;;11.02;7.78;;;;;;;;;;6248763;27;20045;-64
2023/10/14 04:16:14;;;;;;;13.90;9.68;;;;;;;;;;6246150;27;20053;-63
2023/10/14 04:19:44;;;;;;;11.80;8.65;;;;;;;;;;6265346;27;20105;-64
2023/10/14 04:22:46;;;;;;;15.25;6.35;;;;;;;;;;6256477;27;20514;-64
2023/10/14 04:26:01;;;;;;;8.68;7.55;;;;;;;;;;6284734;27;20121;-63
2023/10/14 04:29:05;;;;;;;9.02;5.72;;;;;;;;;;6248834;27;20540;-64
2023/10/14 04:32:22;;;;;;;11.65;8.82;;;;;;;;;;6237896;27;20088;-66
2023/10/14 04:35:31;;;;;;;9.35;8.32;;;;;;;;;;6262380;27;20053;-63
2023/10/14 04:38:42;;;;;;;11.13;10.00;;;;;;;;;;6283078;27;20041;-63
2023/10/14 04:42:11;;;;;;;11.32;9.30;;;;;;;;;;6244597;27;20052;-64
2023/10/14 04:45:14;;;;;;;9.20;8.38;;;;;;;;;;6263271;27;20053;-63
2023/10/14 04:58:53;;;;;;;9.32;4.85;;;;;;;;;;6328609;27;20700;-65
2023/10/14 05:01:55;;;;;;;8.20;5.15;;;;;;;;;;6307918;28;20127;-65
2023/10/14 05:04:59;;;;;;;10.15;5.20;;;;;;;;;;6322647;28;20131;-65
2023/10/14 05:08:04;;;;;;;13.45;5.57;;;;;;;;;;6308910;28;20096;-65
2023/10/14 05:11:12;;;;;;;;;;;;;;;;;;6325455;28;20071;-65
2023/10/14 05:14:14;;;;;;;22.55;6.05;;;;;;;;;;6324987;28;19928;-65
2023/10/14 05:17:18;;;;;;;13.88;5.78;;;;;;;;;;6313550;28;20182;-65
2023/10/14 05:20:54;;;;;;;12.95;6.45;;;;;;;;;;6327983;28;20073;-66
2023/10/14 05:23:53;;;;;;;17.17;6.93;;;;;;;;;;6323545;28;20082;-65
2023/10/14 05:27:01;;;;;;;14.40;6.65;;;;;;;;;;6331127;28;20617;-65
2023/10/14 05:30:07;;;;;;;14.38;7.00;;;;;;;;;;6322070;28;20066;-66
2023/10/14 05:33:13;;;;;;;14.20;6.00;;;;;;;;;;6321529;28;20063;-65
2023/10/14 05:36:15;;;;;;;12.57;7.63;;;;;;;;;;6326626;28;20043;-65
2023/10/14 05:39:18;;;;;;;14.82;7.57;;;;;;;;;;6324035;28;20051;-70
2023/10/14 05:42:24;;;;;;;16.52;7.45;;;;;;;;;;6321238;28;20040;-69
2023/10/14 05:45:26;;;;;;;13.50;7.00;;;;;;;;;;6320313;28;20188;-69
2023/10/14 05:48:30;;;;;;;13.65;8.75;;;;;;;;;;6307865;28;20123;-67
2023/10/14 05:51:33;;;;;;;22.92;9.77;;;;;;;;;;6324239;28;20093;-67
2023/10/14 05:54:35;;;;;;;14.90;6.40;;;;;;;;;;6317851;28;20051;-66
2023/10/14 05:57:41;;;;;;;16.58;6.38;;;;;;;;;;6323537;28;20047;-66
2023/10/14 06:00:43;;;;;;;14.23;7.85;;;;;;;;;;6310467;28;20052;-65
2023/10/14 06:03:46;;;;;;;11.98;5.63;;;;;;;;;;6308179;28;20052;-64
2023/10/14 06:06:48;;;;;;;10.50;6.95;;;;;;;;;;6310331;28;20082;-64
2023/10/14 06:09:50;;;;;;;13.30;8.63;;;;;;;;;;6308241;28;20932;-64
2023/10/14 06:12:52;;;;;;;17.70;6.72;;;;;;;;;;6305391;28;20055;-65
2023/10/14 06:15:54;;;;;;;13.25;7.03;;;;;;;;;;6312863;28;20097;-65
2023/10/14 06:18:58;;;;;;;12.48;7.22;;;;;;;;;;6304005;28;20195;-65
2023/10/14 06:22:00;;;;;;;10.77;6.25;;;;;;;;;;6339059;27;20052;-65
2023/10/14 06:25:03;;;;;;;12.27;5.80;;;;;;;;;;6310529;28;20058;-65
2023/10/14 06:28:07;;;;;;;10.52;5.22;;;;;;;;;;6306995;28;20047;-65
2023/10/14 06:31:09;;;;;;;14.10;5.88;;;;;;;;;;6312134;28;20071;-64
2023/10/14 06:34:11;;;;;;;10.77;6.38;;;;;;;;;;6312181;28;20051;-65
2023/10/14 06:37:13;;;;;;;10.25;5.45;;;;;;;;;;6308745;28;20052;-64
2023/10/14 06:40:19;;;;;;;10.30;5.40;;;;;;;;;;6306723;28;20053;-64
2023/10/14 06:43:26;;;;;;;13.63;6.28;;;;;;;;;;6308447;28;20044;-64
2023/10/14 06:46:30;;;;;;;11.20;5.47;;;;;;;;;;6298483;28;20572;-64
2023/10/14 06:49:32;;;;;;;12.43;6.70;;;;;;;;;;6311064;28;20048;-64
2023/10/14 06:52:35;;;;;;;15.00;6.35;;;;;;;;;;6308480;28;20611;-66
2023/10/14 06:55:39;;;;;;;13.50;6.40;;;;;;;;;;6303929;28;20443;-66
2023/10/14 06:58:44;;;;;;;9.85;5.07;;;;;;;;;;6311898;28;20048;-66
2023/10/14 07:01:46;;;;;;;9.80;6.10;;;;;;;;;;6307634;28;20051;-65
2023/10/14 07:04:50;;;;;;;11.65;5.57;;;;;;;;;;6285862;28;20060;-67
2023/10/14 07:07:52;;;;;;;13.85;6.00;;;;;;;;;;6304591;28;20036;-65
2023/10/14 07:10:55;;;;;;;9.25;5.50;;;;;;;;;;6307719;28;20056;-64
2023/10/14 07:13:57;;;;;;;14.85;6.15;;;;;;;;;;6311669;28;20055;-64
2023/10/14 07:17:01;;;;;;;10.65;5.45;;;;;;;;;;6307484;28;20048;-64
2023/10/14 07:20:04;;;;;;;18.73;7.10;;;;;;;;;;6299839;28;20040;-64
2023/10/14 07:23:09;;;;;;;13.30;5.32;;;;;;;;;;6310670;28;20159;-64
2023/10/14 07:26:12;;;;;;;13.43;5.88;;;;;;;;;;6302014;28;20121;-64
2023/10/14 07:29:14;;;;;;;13.77;5.57;;;;;;;;;;6312532;28;20048;-64
2023/10/14 07:32:19;;;;;;;12.88;6.38;;;;;;;;;;6301553;28;20126;-64
2023/10/14 07:35:22;;;;;;;10.38;6.03;;;;;;;;;;6299497;28;20158;-64
2023/10/14 07:38:24;;;;;;;11.80;4.30;;;;;;;;;;6307369;28;20049;-63
2023/10/14 07:41:26;;;;;;;15.10;4.90;;;;;;;;;;6302373;28;20048;-64
2023/10/14 07:44:28;;;;;;;12.13;5.60;;;;;;;;;;6311814;28;20715;-64
2023/10/14 07:47:30;;;;;;;11.50;5.07;;;;;;;;;;6310130;28;20048;-64
2023/10/14 07:50:34;;;;;;;9.05;5.10;;;;;;;;;;6311481;28;20130;-64
2023/10/14 07:53:36;;;;;;;10.77;6.35;;;;;;;;;;6310848;28;20043;-64
2023/10/14 07:56:43;;;;;;;10.18;4.75;;;;;;;;;;6311137;28;20048;-64
2023/10/14 07:59:45;;;;;;;10.93;5.03;;;;;;;;;;6303958;28;20052;-64
2023/10/14 08:02:51;;;;;;;6.68;3.85;;;;;;;;;;6311070;28;20036;-65
2023/10/14 08:05:59;;;;;;;9.25;4.57;;;;;;;;;;6311852;28;20062;-63
2023/10/14 08:09:03;;;;;;;10.30;4.68;;;;;;;;;;6308651;28;20051;-64
2023/10/14 08:12:05;;;;;;;12.35;4.78;;;;;;;;;;6311880;28;20051;-64
2023/10/14 08:15:07;;;;;;;10.40;4.30;;;;;;;;;;6305345;28;20062;-64
2023/10/14 08:18:12;;;;;;;11.20;4.10;;;;;;;;;;6304977;28;20540;-64
2023/10/14 08:21:15;;;;;;;8.52;5.20;;;;;;;;;;6301685;28;20133;-64
2023/10/14 08:24:18;;;;;;;12.02;4.55;;;;;;;;;;6306691;28;20044;-64
2023/10/14 08:27:22;;;;;;;7.40;3.78;;;;;;;;;;6309267;28;20044;-64
2023/10/14 08:30:25;;;;;;;9.02;5.00;;;;;;;;;;6309517;28;20048;-64
2023/10/14 08:33:30;;;;;;;12.35;4.43;;;;;;;;;;6301155;28;20047;-64
2023/10/14 08:36:33;;;;;;;11.73;4.53;;;;;;;;;;6310258;28;20473;-64
2023/10/14 08:39:35;;;;;;;8.63;4.03;;;;;;;;;;6309092;28;20055;-65
2023/10/14 08:42:38;;;;;;;10.65;3.05;;;;;;;;;;6304770;28;20085;-64
2023/10/14 08:45:41;;;;;;;8.80;4.22;;;;;;;;;;6305337;28;20738;-63
2023/10/14 08:48:46;;;;;;;7.13;3.80;;;;;;;;;;6307039;28;20183;-63
2023/10/14 08:51:50;;;;;;;8.63;3.45;;;;;;;;;;6299873;28;20163;-65
2023/10/14 08:54:56;;;;;;;11.07;3.97;;;;;;;;;;6307328;28;20047;-64
2023/10/14 08:58:01;;;;;;;9.95;3.88;;;;;;;;;;6299319;28;20044;-65
2023/10/14 09:01:06;;;;;;;8.90;3.88;;;;;;;;;;6307811;28;20052;-65
2023/10/14 09:04:11;;;;;;;9.75;4.43;;;;;;;;;;6341181;28;20047;-65
2023/10/14 09:07:14;;;;;;;11.23;2.85;;;;;;;;;;6302232;28;20063;-65
2023/10/14 09:10:20;;;;;;;9.00;4.57;;;;;;;;;;6309033;28;20048;-65
2023/10/14 09:13:22;;;;;;;6.13;3.15;;;;;;;;;;6309866;28;20043;-65
2023/10/14 09:16:26;;;;;;;7.28;3.33;;;;;;;;;;6310482;28;20429;-65
2023/10/14 09:19:48;;;;;;;7.85;3.28;;;;;;;;;;6308865;28;20140;-65
2023/10/14 09:22:50;;;;;;;9.00;2.78;;;;;;;;;;6306426;28;20128;-65
2023/10/14 09:25:55;;;;;;;9.43;2.53;;;;;;;;;;6308856;28;20048;-65
2023/10/14 09:28:59;;;;;;;7.15;3.65;;;;;;;;;;6309649;28;20059;-65
2023/10/14 09:32:01;;;;;;;6.97;3.33;;;;;;;;;;6309997;28;20048;-65
2023/10/14 09:35:04;;;;;;;6.70;2.70;;;;;;;;;;6314699;28;20089;-65
2023/10/14 09:38:08;;;;;;;6.20;2.72;;;;;;;;;;6314793;28;20044;-65
2023/10/14 09:41:10;;;;;;;;;;;;;;;;;;6313289;28;20058;-65
2023/10/14 09:44:12;;;;;;;9.57;2.72;;;;;;;;;;6314119;28;19934;-71
2023/10/14 09:47:22;;;;;;;6.25;2.60;;;;;;;;;;6288126;28;20032;-71
2023/10/14 09:50:25;;;;;;;7.03;3.13;;;;;;;;;;6310536;28;20044;-71
2023/10/14 09:53:29;;;;;;;7.00;3.25;;;;;;;;;;6305265;28;20093;-70
2023/10/14 09:56:32;;;;;;;11.10;3.65;;;;;;;;;;6313808;28;20067;-71
2023/10/14 09:59:46;;;;;;;10.20;3.13;;;;;;;;;;6312485;28;20055;-71
2023/10/14 10:02:50;;;;;;;11.90;3.20;;;;;;;;;;6344866;27;20056;-72
2023/10/14 10:06:33;;;;;;;7.22;2.85;;;;;;;;;;6312232;28;20060;-72
2023/10/14 10:10:10;;;;;;;6.63;3.63;;;;;;;;;;6312096;28;20040;-72
2023/10/14 10:13:15;;;;;;;9.65;2.50;;;;;;;;;;6307530;28;20538;-72
2023/10/14 10:16:21;;;;;;;6.45;2.58;;;;;;;;;;6313266;28;20043;-72
2023/10/14 10:19:23;;;;;;;6.13;2.60;;;;;;;;;;6312407;28;20071;-72
2023/10/14 10:22:41;;;;;;;7.38;2.33;;;;;;;;;;6309493;28;20544;-72
2023/10/14 10:25:47;;;;;;;10.48;2.63;;;;;;;;;;6309161;28;20052;-72
2023/10/14 10:28:49;;;;;;;10.02;2.80;;;;;;;;;;6304960;28;20086;-70
2023/10/14 10:32:16;;;;;;;5.80;2.50;;;;;;;;;;6312961;28;20078;-70
2023/10/14 10:35:22;;;;;;;4.57;2.33;;;;;;;;;;6339636;27;20082;-70
2023/10/14 10:38:28;;;;;;;4.97;1.73;;;;;;;;;;6311316;28;20040;-72
2023/10/14 10:41:31;;;;;;;5.95;2.33;;;;;;;;;;6316035;28;20132;-66
2023/10/14 10:44:34;;;;;;;6.53;2.45;;;;;;;;;;6311030;28;20185;-66
2023/10/14 10:47:44;;;;;;;6.88;2.55;;;;;;;;;;6311107;28;20040;-65
2023/10/14 10:50:50;;;;;;;10.27;2.33;;;;;;;;;;6313003;28;20048;-64
2023/10/14 10:53:53;;;;;;;6.63;2.40;;;;;;;;;;6311585;28;20836;-64
2023/10/14 10:57:00;;;;;;;7.03;2.67;;;;;;;;;;6310298;28;20047;-70
2023/10/14 11:00:10;;;;;;;11.60;2.65;;;;;;;;;;6307525;28;20043;-71
2023/10/14 11:03:15;;;;;;;11.55;3.50;;;;;;;;;;6317584;28;20052;-70
2023/10/14 11:06:19;;;;;;;15.25;3.47;;;;;;;;;;6312132;28;20044;-71
2023/10/14 11:09:21;;;;;;;9.02;2.15;;;;;;;;;;6310075;28;20506;-71
2023/10/14 11:12:23;;;;;;;12.35;4.20;;;;;;;;;;6312194;28;20059;-71
2023/10/14 11:15:26;;;;;;;9.13;2.58;;;;;;;;;;6313056;28;20056;-71
2023/10/14 11:18:30;;;;;;;7.22;2.50;;;;;;;;;;6313200;28;20051;-71
2023/10/14 11:21:40;;;;;;;10.07;2.55;;;;;;;;;;6312001;28;20040;-72
2023/10/14 11:24:42;;;;;;;9.23;2.70;;;;;;;;;;6311305;28;20064;-71
2023/10/14 11:27:45;;;;;;;3.53;1.90;;;;;;;;;;6312673;28;20930;-71
2023/10/14 11:30:47;;;;;;;12.98;3.83;;;;;;;;;;6302276;28;20051;-71
2023/10/14 11:33:55;;;;;;;7.55;2.15;;;;;;;;;;6312778;28;20058;-71
2023/10/14 11:36:57;;;;;;;5.78;1.90;;;;;;;;;;6305689;28;20056;-71
2023/10/14 11:40:12;;;;;;;3.97;1.58;;;;;;;;;;6312426;28;20458;-71
2023/10/14 11:43:16;;;;;;;5.85;2.35;;;;;;;;;;6312628;28;20048;-70
2023/10/14 11:46:18;;;;;;;5.07;2.40;;;;;;;;;;6312368;28;20052;-70
2023/10/14 11:49:20;;;;;;;7.25;2.35;;;;;;;;;;6303830;28;20045;-70
2023/10/14 11:52:23;;;;;;;4.93;2.00;;;;;;;;;;6309840;28;20051;-70
2023/10/14 11:55:25;;;;;;;10.48;2.08;;;;;;;;;;6308740;28;20071;-71
2023/10/14 11:58:33;;;;;;;5.68;2.25;;;;;;;;;;6308637;28;20036;-71
2023/10/14 12:01:35;;;;;;;6.38;2.25;;;;;;;;;;6310650;28;20040;-71
2023/10/14 12:04:38;;;;;;;5.63;2.72;;;;;;;;;;6310046;28;20048;-72
2023/10/14 12:07:42;;;;;;;10.35;2.60;;;;;;;;;;6311388;28;20048;-71
2023/10/14 12:10:45;;;;;;;5.78;2.80;;;;;;;;;;6309714;28;20044;-71
2023/10/14 12:13:48;;;;;;;6.53;2.30;;;;;;;;;;6310652;28;20047;-70
2023/10/14 12:16:52;;;;;;;6.53;2.85;;;;;;;;;;6310751;28;20449;-71
2023/10/14 12:19:54;;;;;;;7.57;2.22;;;;;;;;;;6310450;28;20100;-72
2023/10/14 12:22:56;;;;;;;7.78;2.60;;;;;;;;;;6309937;28;20067;-71
2023/10/14 12:26:00;;;;;;;12.18;2.80;;;;;;;;;;6310384;28;20040;-72
2023/10/14 12:29:07;;;;;;;10.75;3.38;;;;;;;;;;6307624;28;20425;-71
2023/10/14 12:32:14;;;;;;;5.13;2.22;;;;;;;;;;6330786;27;20051;-72
2023/10/14 12:35:27;;;;;;;8.93;2.63;;;;;;;;;;6310560;28;20181;-72
2023/10/14 12:38:30;;;;;;;9.88;2.60;;;;;;;;;;6310949;28;20088;-71
2023/10/14 12:41:33;;;;;;;8.45;2.53;;;;;;;;;;6311001;28;20623;-72
2023/10/14 12:44:35;;;;;;;9.57;2.83;;;;;;;;;;6310983;28;20051;-72
2023/10/14 12:47:38;;;;;;;7.10;2.42;;;;;;;;;;6310472;28;20734;-72
2023/10/14 12:50:40;;;;;;;6.10;2.40;;;;;;;;;;6311035;28;20043;-72
2023/10/14 12:53:45;;;;;;;9.18;2.53;;;;;;;;;;6310774;28;20052;-72
2023/10/14 12:56:50;;;;;;;9.65;3.20;;;;;;;;;;6311460;28;20108;-73
2023/10/14 12:59:52;;;;;;;7.32;2.35;;;;;;;;;;6310520;28;20048;-72
2023/10/14 13:02:58;;;;;;;8.48;2.30;;;;;;;;;;6310720;28;20047;-72
2023/10/14 13:06:01;;;;;;;7.80;2.45;;;;;;;;;;6311178;28;20040;-72
2023/10/14 13:09:08;;;;;;;5.47;2.47;;;;;;;;;;6313120;28;20438;-72
2023/10/14 13:12:16;;;;;;;5.45;2.78;;;;;;;;;;6316182;28;20181;-71
2023/10/14 13:15:30;;;;;;;9.88;3.05;;;;;;;;;;6313311;28;20411;-71
2023/10/14 13:18:32;;;;;;;14.77;3.53;;;;;;;;;;6315278;28;20100;-70
2023/10/14 13:21:41;;;;;;;4.40;2.35;;;;;;;;;;6314986;28;20520;-71
2023/10/14 13:24:49;;;;;;;5.25;2.40;;;;;;;;;;6315564;28;20733;-71
2023/10/14 13:27:52;;;;;;;7.43;3.00;;;;;;;;;;6315853;28;20582;-72
2023/10/14 13:30:58;;;;;;;7.45;2.50;;;;;;;;;;6315365;28;20082;-71
2023/10/14 13:34:04;;;;;;;7.10;2.03;;;;;;;;;;6314821;28;20090;-71
2023/10/14 13:37:08;;;;;;;11.02;2.17;;;;;;;;;;6314340;28;20048;-71
2023/10/14 13:40:10;;;;;;;5.25;1.95;;;;;;;;;;6315252;28;20189;-71
2023/10/14 13:43:15;;;;;;;8.70;2.83;;;;;;;;;;6303760;28;20096;-71
2023/10/14 13:46:17;;;;;;;4.72;2.35;;;;;;;;;;6313856;28;20544;-71
2023/10/14 13:49:26;;;;;;;6.40;1.95;;;;;;;;;;6315174;28;20040;-71
2023/10/14 13:52:32;;;;;;;9.50;2.42;;;;;;;;;;6314540;28;20048;-70
2023/10/14 13:55:38;;;;;;;8.25;2.58;;;;;;;;;;6311781;28;20052;-71
2023/10/14 13:58:40;;;;;;;10.75;2.40;;;;;;;;;;6313373;28;20566;-71
2023/10/14 14:01:42;;;;;;;6.05;2.63;;;;;;;;;;6312152;28;20067;-71
2023/10/14 14:04:45;;;;;;;5.85;2.30;;;;;;;;;;6311325;28;20051;-70
2023/10/14 14:07:55;;;;;;;5.07;1.90;;;;;;;;;;6311045;28;20044;-65
2023/10/14 14:11:03;;;;;;;6.82;2.53;;;;;;;;;;6312219;28;20051;-65
2023/10/14 14:14:06;;;;;;;7.57;2.60;;;;;;;;;;6313390;28;20048;-65
2023/10/14 14:17:08;;;;;;;8.88;2.78;;;;;;;;;;6312168;28;20051;-65
2023/10/14 14:20:12;;;;;;;9.45;2.67;;;;;;;;;;6312582;28;20055;-65
2023/10/14 14:23:15;;;;;;;6.25;2.58;;;;;;;;;;6313222;28;20133;-65
2023/10/14 14:26:18;;;;;;;6.63;2.25;;;;;;;;;;6313093;28;20048;-66
2023/10/14 14:29:21;;;;;;;3.95;2.15;;;;;;;;;;6308131;28;20067;-65
2023/10/14 14:32:24;;;;;;;5.57;2.15;;;;;;;;;;6312775;28;20562;-66
2023/10/14 14:35:29;;;;;;;7.68;1.95;;;;;;;;;;6313108;28;20043;-65
2023/10/14 14:38:34;;;;;;;5.63;2.13;;;;;;;;;;6312856;28;20719;-66
2023/10/14 14:41:37;;;;;;;6.78;1.90;;;;;;;;;;6313602;28;20615;-66
2023/10/14 14:44:41;;;;;;;8.48;2.50;;;;;;;;;;6313191;28;20955;-65
2023/10/14 14:47:44;;;;;;;12.10;2.22;;;;;;;;;;6307373;28;20048;-65
2023/10/14 14:50:47;;;;;;;100.85;67.18;;;;;;;;;;6313200;28;20546;-65
2023/10/14 14:53:55;;;;;;;16.98;4.82;;;;;;;;;;6312960;28;20080;-65
2023/10/14 14:56:57;;;;;;;21.35;5.65;;;;;;;;;;6312032;28;20079;-65
2023/10/14 14:59:59;;;;;;;40.55;11.82;;;;;;;;;;6313234;28;20044;-72
2023/10/14 15:03:05;;;;;;;36.95;18.00;;;;;;;;;;6313051;28;20042;-72
2023/10/14 15:06:07;;;;;;;59.40;32.45;;;;;;;;;;6313942;28;20052;-71
2023/10/14 15:09:14;;;;;;;20.25;9.05;;;;;;;;;;6313925;28;20040;-73
2023/10/14 15:12:23;;;;;;;26.35;12.98;;;;;;;;;;6305782;28;20098;-72
2023/10/14 15:15:26;;;;;;;10.57;4.97;;;;;;;;;;6309354;28;20048;-72
2023/10/14 15:18:28;;;;;;;8.70;2.83;;;;;;;;;;6309659;28;20047;-72
2023/10/14 15:21:30;;;;;;;12.25;4.78;;;;;;;;;;6307074;28;20047;-72
2023/10/14 15:24:33;;;;;;;21.52;6.75;;;;;;;;;;6300875;28;20175;-72
2023/10/14 15:27:36;;;;;;;15.13;5.65;;;;;;;;;;6304356;28;20132;-73
2023/10/14 15:30:41;;;;;;;16.80;6.57;;;;;;;;;;6301980;28;20040;-72
2023/10/14 15:33:43;;;;;;;20.27;4.80;;;;;;;;;;6310257;28;20080;-71
2023/10/14 15:36:45;;;;;;;17.52;5.22;;;;;;;;;;6309547;28;20060;-74
2023/10/14 15:39:49;;;;;;;12.10;3.25;;;;;;;;;;6308848;28;20123;-71
2023/10/14 15:42:51;;;;;;;12.73;3.25;;;;;;;;;;6309938;28;20051;-72
2023/10/14 15:46:01;;;;;;;15.57;3.85;;;;;;;;;;6310235;28;20060;-71
2023/10/14 15:49:04;;;;;;;12.45;3.53;;;;;;;;;;6308732;28;20765;-72
2023/10/14 15:52:06;;;;;;;9.32;2.55;;;;;;;;;;6308644;28;20040;-72
2023/10/14 15:55:10;;;;;;;12.68;3.50;;;;;;;;;;6310341;28;20032;-72
2023/10/14 15:58:13;;;;;;;11.20;3.78;;;;;;;;;;6307859;28;20503;-72
2023/10/14 16:01:25;;;;;;;9.63;3.78;;;;;;;;;;6307462;28;20044;-72
2023/10/14 16:04:28;;;;;;;19.10;5.55;;;;;;;;;;6311749;28;20059;-73
2023/10/14 16:07:30;;;;;;;12.75;4.38;;;;;;;;;;6308961;28;20051;-72
2023/10/14 16:10:34;;;;;;;7.72;3.28;;;;;;;;;;6311122;28;20127;-72
2023/10/14 16:13:38;;;;;;;13.07;3.75;;;;;;;;;;6311554;28;20864;-72
2023/10/14 16:16:40;;;;;;;12.05;3.10;;;;;;;;;;6311034;28;20048;-72
2023/10/14 16:19:42;;;;;;;9.38;3.58;;;;;;;;;;6310910;28;20534;-73
2023/10/14 16:22:45;;;;;;;16.63;2.80;;;;;;;;;;6308380;28;20040;-65
2023/10/14 16:25:47;;;;;;;13.88;4.03;;;;;;;;;;6311854;28;20147;-65
2023/10/14 16:28:52;;;;;;;10.77;3.30;;;;;;;;;;6311362;28;20059;-66
2023/10/14 16:31:55;;;;;;;11.57;4.35;;;;;;;;;;6306485;28;20333;-65
2023/10/14 16:34:59;;;;;;;14.43;4.78;;;;;;;;;;6309771;28;20047;-65
2023/10/14 16:38:06;;;;;;;8.88;2.88;;;;;;;;;;6309371;28;20055;-65
2023/10/14 16:41:09;;;;;;;12.05;2.95;;;;;;;;;;6309902;28;20055;-65
2023/10/14 16:44:11;;;;;;;9.27;3.25;;;;;;;;;;6309644;28;20067;-64
2023/10/14 16:47:15;;;;;;;8.35;3.55;;;;;;;;;;6304772;28;20040;-65
2023/10/14 16:50:18;;;;;;;8.95;3.75;;;;;;;;;;6297918;28;20047;-65
2023/10/14 16:53:20;;;;;;;6.03;2.83;;;;;;;;;;6309957;28;20055;-64
2023/10/14 16:56:24;;;;;;;8.38;2.80;;;;;;;;;;6311008;28;20048;-65
2023/10/14 16:59:26;;;;;;;6.63;2.58;;;;;;;;;;6310620;28;20574;-64
2023/10/14 17:02:28;;;;;;;9.77;3.03;;;;;;;;;;6309203;28;20518;-64
2023/10/14 17:05:30;;;;;;;8.40;3.50;;;;;;;;;;6309982;28;20503;-64
2023/10/14 17:08:34;;;;;;;10.45;2.95;;;;;;;;;;6308518;28;20549;-69
2023/10/14 17:11:36;;;;;;;11.80;3.20;;;;;;;;;;6310398;28;20039;-68
2023/10/14 17:14:39;;;;;;;7.53;3.05;;;;;;;;;;6309033;28;20044;-68
2023/10/14 17:17:41;;;;;;;11.40;2.85;;;;;;;;;;6304229;28;20067;-69
2023/10/14 17:20:44;;;;;;;9.43;3.25;;;;;;;;;;6301666;28;20051;-65
2023/10/14 17:23:46;;;;;;;9.00;3.13;;;;;;;;;;6305907;28;20082;-66
2023/10/14 17:26:48;;;;;;;8.40;3.30;;;;;;;;;;6305979;28;20055;-66
2023/10/14 17:29:50;;;;;;;7.35;2.80;;;;;;;;;;6306009;28;20550;-66
2023/10/14 17:32:53;;;;;;;10.50;3.42;;;;;;;;;;6307869;28;20048;-65
2023/10/14 17:35:55;;;;;;;6.90;2.88;;;;;;;;;;6308084;28;20048;-65
2023/10/14 17:39:00;;;;;;;7.43;3.33;;;;;;;;;;6308196;28;20048;-65
2023/10/14 17:42:06;;;;;;;;;;;;;;;;;;6309191;28;20066;-64
2023/10/14 17:45:10;;;;;;;9.35;3.47;;;;;;;;;;6308929;28;20455;-65
2023/10/14 17:48:13;;;;;;;5.82;3.00;;;;;;;;;;6308427;28;20046;-63
2023/10/14 17:51:15;;;;;;;5.57;2.92;;;;;;;;;;6308767;28;20149;-64
2023/10/14 17:54:17;;;;;;;8.65;2.53;;;;;;;;;;6309670;28;20481;-64
2023/10/14 17:57:19;;;;;;;11.73;3.33;;;;;;;;;;6313220;28;20430;-64
2023/10/14 18:00:30;;;;;;;8.77;2.30;;;;;;;;;;6304025;28;20051;-64
2023/10/14 18:03:33;;;;;;;6.68;2.97;;;;;;;;;;6307117;28;20173;-66
2023/10/14 18:06:36;;;;;;;6.80;2.95;;;;;;;;;;6309907;28;20105;-66
2023/10/14 18:09:38;;;;;;;7.45;2.92;;;;;;;;;;6310934;28;20032;-67
2023/10/14 18:12:41;;;;;;;7.95;3.08;;;;;;;;;;6312622;28;20040;-66
2023/10/14 18:15:43;;;;;;;8.93;3.42;;;;;;;;;;6298934;28;20066;-65
2023/10/14 18:18:46;;;;;;;6.05;4.25;;;;;;;;;;6312652;28;20578;-66
2023/10/14 18:21:48;;;;;;;5.57;2.92;;;;;;;;;;6304628;28;20040;-66
2023/10/14 18:24:52;;;;;;;6.15;3.28;;;;;;;;;;6313249;28;20048;-66
2023/10/14 18:27:56;;;;;;;6.65;2.67;;;;;;;;;;6305704;28;20036;-66
2023/10/14 18:30:58;;;;;;;7.80;2.92;;;;;;;;;;6297270;28;20085;-65
2023/10/14 18:34:01;;;;;;;7.43;2.85;;;;;;;;;;6297161;28;20048;-65
2023/10/14 18:37:04;;;;;;;8.07;3.35;;;;;;;;;;6305459;28;20040;-66
2023/10/14 18:40:07;;;;;;;10.35;4.18;;;;;;;;;;6312870;28;20130;-65
2023/10/14 18:43:09;;;;;;;8.98;4.15;;;;;;;;;;6313195;28;20920;-64
2023/10/14 18:46:18;;;;;;;9.80;3.53;;;;;;;;;;6309792;28;20054;-64